Pagrindinis puslapis
METAR-TAF:

METAR-TAF

Oro uostai :

Lossiemouth, Škotija

platuma: 57-43N, ilguma: 003-19W, Aukštis: 13 m

Dabartinis oras

Ataskaita buvo paskelbta 43 minutes, ne 17:50 UTC
Vėjas 17 kt iš Pietvakarių
Temperatūra 5°C
Drėgmė 75%
Slėgis 991 hPa
Matomumas 10 km arba daugiau

METAR: EGQS 291750Z 23017KT 9999 05/01 Q0991 NOSIG RMK BLU BLU

Laikas: 18:33 (18:33 UTC)

Prognozė

Ataskaita buvo paskelbta 2 valandos ir 4 minutes, ne 16:29 UTC
Prognozė galioja nuo 29 metu 18 UTC su 01 metu 12 UTC
Vėjas 18 kt iš Pietvakarių su gūsio iki 28 kt
Matomumas 10 km arba daugiau
Mažai debesys ne aukštis 3000 ft
Tapsmas
nuo 29 metu 18 UTC su 29 metu 20 UTC
Vėjas 12 kt iš Pietų/Pietvakarių

TAF: EGQS 291629Z 2918/0112 23018G28KT 9999 FEW030 BECMG 2918/2920 21012KT

Orai ataskaitas ir orų prognozės (METAR, TAF).

turimą stotys yra geltonos ir raudonos taškus žemėlapyje.

Perkelti pele per norėdami pamatyti stoties vardą.

Tada spustelėkite, norėdami matyti oro stebėjimo ir prognozės.

Norėdami pakeisti žemėlapį: spustelėkite ant žalios mygtukų su juodo kryžiaus žemyn,; žalią mygtuką su brūkšneliu, jei norite nutolinti; arba žalių rodyklių gretimoms žemėlapius.


METAR-TAF: